Bradenton Beach, FL

10:49 PM EST on January 26, 2015 (GMT -0500)
Saint Petersburg-Clearwater International | Change Station
CLOSE
Current Station
Airport
Location: St. Petersburg Airport,
Elevation: 10 ft
Nearby Weather Stations

Elev 10 ft 27.91 °N, 82.69 °W | Updated 56 minutes ago

Partly Cloudy
Partly Cloudy
57 °F
Feels Like 57 °F
N
18
Wind Variable Wind from NW

Today
High -- | Low -- °F
--% Chance of Precip.
Yesterday
High -- | Low -- °F
Precip. -- in
7:19 AM 6:07 PM
Waxing Crescent, 49% visible
Pressure 29.99 in
Visibility 10.0 miles
Clouds Scattered Clouds 3400 ft
Dew Point 46 °F
Humidity 67%
Rainfall 0.10 in
Snow Depth Not available.
UV 0 out of 12
Pollen 6.00 out of 12
Air Quality Not available.
Flu Activity Not available.
METAR KPIE 270253Z 31016KT 10SM SCT034 14/08 A2999 RMK AO2 SLP154 T01390078 53013

More Conditions Fewer Conditions

Pressure 29.99 in
Visibility 10.0 miles
Clouds Scattered Clouds 3400 ft
Dew Point 46 °F
Humidity 67%
Rainfall 0.10 in
Snow Depth Not available.
UV 0 out of 12
Pollen 6.00 out of 12
Air Quality Not available.
Flu Activity Not available.
METAR KPIE 270253Z 31016KT 10SM SCT034 14/08 A2999 RMK AO2 SLP154 T01390078 53013

More Conditions Fewer Conditions

10-Day Weather Forecast

Almanac

Astronomy

Jan. 26, 2015 Rise Set
Actual Time
Civil Twilight
Nautical Twilight
Astronomical Twilight
Moon
Length of Visible Light
Length of Day
Tomorrow will be .
, % of the Moon is Illuminated

Today's Extremes

State Highs State Lows

Community

WunderPhotos

Upload Photos

1,790,504 photos uploaded!

WunderBlogs® & News

Nearby

Air Quality

  Air Quality AQ Index Pollutant
Not available.

Snow Depth

Station Depth Elevation

Earthquake Activity

City Distance Mag. Time & Date
Minimum magnitude displayed is 2.5.

Coastal Water Temperatures

Place Temperature

Nearby Weather Stations